createdAt,value
2023-04-09T00:01:06.624Z,61.72
2023-04-09T00:04:09.648Z,62.75
2023-04-09T00:07:12.625Z,62.56
2023-04-09T00:10:16.883Z,64.37
2023-04-09T00:13:31.937Z,62.14
2023-04-09T00:16:41.922Z,63.38
2023-04-09T00:19:44.849Z,63.03
2023-04-09T00:22:48.615Z,64.46
2023-04-09T00:25:51.333Z,64.51
2023-04-09T00:28:55.666Z,64.42
2023-04-09T00:31:58.729Z,63.50
2023-04-09T00:35:03.033Z,62.93
2023-04-09T00:38:05.951Z,65.73
2023-04-09T00:41:08.802Z,65.39
2023-04-09T00:44:13.213Z,65.30
2023-04-09T00:47:16.149Z,64.69
2023-04-09T00:50:19.416Z,64.60
2023-04-09T00:53:22.547Z,64.18
2023-04-09T00:56:25.673Z,63.61
2023-04-09T00:59:30.364Z,62.96
2023-04-09T01:02:34.555Z,64.34
2023-04-09T01:05:45.342Z,63.72
2023-04-09T01:08:58.379Z,63.37
2023-04-09T01:12:16.320Z,62.07
2023-04-09T01:15:26.937Z,62.83
2023-04-09T01:18:35.734Z,62.52
2023-04-09T01:21:40.276Z,63.52
2023-04-09T01:24:53.898Z,63.80
2023-04-09T01:28:17.451Z,63.58
2023-04-09T01:31:23.351Z,62.95
2023-04-09T01:34:27.503Z,63.20
2023-04-09T01:37:31.073Z,65.07
2023-04-09T01:40:35.558Z,65.69
2023-04-09T01:43:43.789Z,64.13
2023-04-09T01:46:48.135Z,64.62
2023-04-09T01:49:53.603Z,62.95
2023-04-09T01:52:56.436Z,64.17
2023-04-09T01:56:01.710Z,64.46
2023-04-09T01:59:05.909Z,63.22
2023-04-09T02:02:13.738Z,65.04
2023-04-09T02:05:20.549Z,64.23
2023-04-09T02:08:26.458Z,63.84
2023-04-09T02:11:30.727Z,63.38
2023-04-09T02:14:36.285Z,63.00
2023-04-09T02:17:39.440Z,63.32
2023-04-09T02:20:42.590Z,63.28
2023-04-09T02:23:45.600Z,64.54
2023-04-09T02:26:50.251Z,67.93
2023-04-09T02:29:54.786Z,66.94
2023-04-09T02:32:57.603Z,67.13
2023-04-09T02:36:01.027Z,67.64
2023-04-09T02:39:04.094Z,69.73
2023-04-09T02:42:07.957Z,70.86
2023-04-09T02:45:12.681Z,71.28
2023-04-09T02:48:15.509Z,71.17
2023-04-09T02:51:18.361Z,71.97
2023-04-09T02:54:21.473Z,71.35
2023-04-09T02:57:24.322Z,71.66
2023-04-09T03:00:28.844Z,73.25
2023-04-09T03:03:33.059Z,72.09
2023-04-09T03:06:36.192Z,73.16
2023-04-09T03:09:38.885Z,74.45
2023-04-09T03:12:44.555Z,73.60
2023-04-09T03:15:52.908Z,72.79
2023-04-09T03:18:55.920Z,73.35
2023-04-09T03:22:06.597Z,73.04
2023-04-09T03:25:10.332Z,73.49
2023-04-09T03:28:13.209Z,73.66
2023-04-09T03:31:17.374Z,72.04
2023-04-09T03:34:20.203Z,70.93
2023-04-09T03:37:23.111Z,73.69
2023-04-09T03:40:26.028Z,71.97
2023-04-09T03:43:28.885Z,73.50
2023-04-09T03:46:33.339Z,73.09
2023-04-09T03:49:36.662Z,71.19
2023-04-09T03:52:39.925Z,72.83
2023-04-09T03:55:43.104Z,74.02
2023-04-09T03:58:45.979Z,73.00
2023-04-09T04:01:51.268Z,72.60
2023-04-09T04:04:54.031Z,70.57
2023-04-09T04:07:57.272Z,71.54
2023-04-09T04:11:04.835Z,72.03
2023-04-09T04:14:07.625Z,70.34
2023-04-09T04:17:12.216Z,72.10
2023-04-09T04:20:15.341Z,73.62
2023-04-09T04:23:18.037Z,72.71
2023-04-09T04:26:21.010Z,72.93
2023-04-09T04:29:23.750Z,74.14
2023-04-09T04:32:28.348Z,73.58
2023-04-09T04:35:31.153Z,75.06
2023-04-09T04:38:34.552Z,76.28
2023-04-09T04:41:37.293Z,75.62
2023-04-09T04:44:40.124Z,75.46
2023-04-09T04:47:44.410Z,76.51
2023-04-09T04:50:47.462Z,77.48
2023-04-09T04:53:50.276Z,75.51
2023-04-09T04:56:53.289Z,76.54
2023-04-09T04:59:56.318Z,76.26
2023-04-09T05:03:00.873Z,76.01
2023-04-09T05:06:03.691Z,74.67
2023-04-09T05:09:06.448Z,74.18
2023-04-09T05:12:09.601Z,73.63
2023-04-09T05:15:12.514Z,74.98
2023-04-09T05:18:16.759Z,73.32
2023-04-09T05:21:19.582Z,73.87
2023-04-09T05:24:22.319Z,74.26
2023-04-09T05:27:26.027Z,74.01
2023-04-09T05:30:28.797Z,75.14
2023-04-09T05:33:37.865Z,76.27
2023-04-09T05:36:41.470Z,77.01
2023-04-09T05:39:44.227Z,77.67
2023-04-09T05:42:48.192Z,78.00
2023-04-09T05:45:51.223Z,77.99
2023-04-09T05:48:55.687Z,77.55
2023-04-09T05:51:58.712Z,77.68
2023-04-09T05:55:01.527Z,77.16
2023-04-09T05:58:04.303Z,77.20
2023-04-09T06:01:07.412Z,76.89
2023-04-09T06:04:11.998Z,77.12
2023-04-09T06:07:15.263Z,77.21
2023-04-09T06:10:18.377Z,77.99
2023-04-09T06:13:21.275Z,76.55
2023-04-09T06:16:24.135Z,76.83
2023-04-09T06:19:28.613Z,77.80
2023-04-09T06:22:31.781Z,77.37
2023-04-09T06:25:35.329Z,77.29
2023-04-09T06:28:38.574Z,77.69
2023-04-09T06:31:41.974Z,78.58
2023-04-09T06:34:46.168Z,76.27
2023-04-09T06:37:49.023Z,76.19
2023-04-09T06:40:52.092Z,76.54
2023-04-09T06:43:55.610Z,74.98
2023-04-09T06:46:58.346Z,76.62
2023-04-09T06:50:03.041Z,76.22
2023-04-09T06:53:07.675Z,76.65
2023-04-09T06:56:10.402Z,77.18
2023-04-09T06:59:13.273Z,76.33
2023-04-09T07:02:16.160Z,75.57
2023-04-09T07:05:20.868Z,74.55
2023-04-09T07:08:24.011Z,75.44
2023-04-09T07:11:26.786Z,74.83
2023-04-09T07:14:30.937Z,74.97
2023-04-09T07:17:34.934Z,75.74
2023-04-09T07:20:39.175Z,75.30
2023-04-09T07:23:42.511Z,74.44
2023-04-09T07:26:45.452Z,74.93
2023-04-09T07:29:48.281Z,74.81
2023-04-09T07:32:51.612Z,75.47
2023-04-09T07:35:56.153Z,74.04
2023-04-09T07:39:00.652Z,76.03
2023-04-09T07:42:04.448Z,76.13
2023-04-09T07:45:08.432Z,74.14
2023-04-09T07:48:12.996Z,74.22
2023-04-09T07:51:17.522Z,74.75
2023-04-09T07:54:21.228Z,73.00
2023-04-09T07:57:23.916Z,72.88
2023-04-09T08:00:27.295Z,73.40
2023-04-09T08:03:30.215Z,73.02
2023-04-09T08:06:34.561Z,73.43
2023-04-09T08:09:37.318Z,72.47
2023-04-09T08:12:40.331Z,72.30
2023-04-09T08:15:43.102Z,73.02
2023-04-09T08:18:46.200Z,72.58
2023-04-09T08:21:50.715Z,72.77
2023-04-09T08:24:54.326Z,72.07
2023-04-09T08:27:58.264Z,71.33
2023-04-09T08:31:04.529Z,70.55
2023-04-09T08:34:07.634Z,71.29
2023-04-09T08:37:11.873Z,71.58
2023-04-09T08:40:15.499Z,73.41
2023-04-09T08:43:23.660Z,72.63
2023-04-09T08:46:28.518Z,69.11
2023-04-09T08:49:31.223Z,70.86
2023-04-09T08:52:36.443Z,70.10
2023-04-09T08:55:39.518Z,71.08
2023-04-09T08:58:44.709Z,69.42
2023-04-09T09:01:52.834Z,71.10
2023-04-09T09:05:00.810Z,69.85
2023-04-09T09:08:05.481Z,70.00
2023-04-09T09:11:08.330Z,71.03
2023-04-09T09:14:12.541Z,70.26
2023-04-09T09:17:15.531Z,71.63
2023-04-09T09:20:22.862Z,69.37
2023-04-09T09:23:37.876Z,70.03
2023-04-09T09:26:41.023Z,70.26
2023-04-09T09:29:44.926Z,69.79
2023-04-09T09:32:47.810Z,70.21
2023-04-09T09:35:51.592Z,70.18
2023-04-09T09:38:57.537Z,69.23
2023-04-09T09:42:10.095Z,67.17
2023-04-09T09:45:19.472Z,69.38
2023-04-09T09:48:22.263Z,69.09
2023-04-09T09:51:31.050Z,68.42
2023-04-09T09:54:41.653Z,69.65
2023-04-09T09:57:47.313Z,68.08
2023-04-09T10:00:52.770Z,67.17
2023-04-09T10:03:59.634Z,67.48
2023-04-09T10:07:05.786Z,68.07
2023-04-09T10:10:11.029Z,67.34
2023-04-09T10:13:21.870Z,67.51
2023-04-09T10:16:25.978Z,66.06
2023-04-09T10:19:29.063Z,66.53
2023-04-09T10:22:34.792Z,66.38
2023-04-09T10:25:38.938Z,65.84
2023-04-09T10:28:42.056Z,66.34
2023-04-09T10:31:55.203Z,65.61
2023-04-09T10:34:59.304Z,66.05
2023-04-09T10:38:02.301Z,64.87
2023-04-09T10:41:14.048Z,64.97
2023-04-09T10:44:24.520Z,66.01
2023-04-09T10:47:34.191Z,66.74
2023-04-09T10:50:38.068Z,64.99
2023-04-09T10:53:40.915Z,63.96
2023-04-09T10:57:13.741Z,62.96
2023-04-09T11:00:18.676Z,63.56
2023-04-09T11:03:23.804Z,61.89
2023-04-09T11:06:27.744Z,62.59
2023-04-09T11:09:30.806Z,61.82
2023-04-09T11:12:35.141Z,60.93
2023-04-09T11:15:38.309Z,60.43
2023-04-09T11:18:42.107Z,58.32
2023-04-09T11:21:46.209Z,56.54
2023-04-09T11:24:50.775Z,55.70
2023-04-09T11:27:55.705Z,54.84
2023-04-09T11:30:58.432Z,53.71
2023-04-09T11:34:01.134Z,53.04
2023-04-09T11:37:09.107Z,52.45
2023-04-09T11:40:22.156Z,52.46
2023-04-09T11:43:26.601Z,51.69
2023-04-09T11:46:29.735Z,49.97
2023-04-09T11:49:32.558Z,51.57
2023-04-09T11:52:35.875Z,50.75
2023-04-09T11:55:38.583Z,49.47
2023-04-09T11:58:47.065Z,50.29
2023-04-09T12:01:51.204Z,50.09
2023-04-09T12:04:54.208Z,49.84
2023-04-09T12:07:59.832Z,50.79
2023-04-09T12:11:10.417Z,48.59
2023-04-09T12:14:16.742Z,47.71
2023-04-09T12:17:22.009Z,47.55
2023-04-09T12:20:32.387Z,47.67
2023-04-09T12:23:35.337Z,47.82
2023-04-09T12:26:38.041Z,49.59
2023-04-09T12:29:42.205Z,49.83
2023-04-09T12:32:45.939Z,48.92
2023-04-09T12:35:48.818Z,48.56
2023-04-09T12:38:51.952Z,47.28
2023-04-09T12:41:54.995Z,46.83
2023-04-09T12:44:59.245Z,47.67
2023-04-09T12:48:02.268Z,47.56
2023-04-09T12:51:05.959Z,48.83
2023-04-09T12:54:08.827Z,49.77
2023-04-09T12:57:11.537Z,47.52
2023-04-09T13:00:17.070Z,48.85
2023-04-09T13:03:19.889Z,48.15
2023-04-09T13:06:23.258Z,48.46
2023-04-09T13:09:26.425Z,47.80
2023-04-09T13:12:29.164Z,47.41
2023-04-09T13:15:33.313Z,47.49
2023-04-09T13:18:36.304Z,46.82
2023-04-09T13:21:39.314Z,46.39
2023-04-09T13:24:43.282Z,47.82
2023-04-09T13:27:46.067Z,46.68
2023-04-09T13:30:51.365Z,47.43
2023-04-09T13:33:54.326Z,47.73
2023-04-09T13:36:57.219Z,48.27
2023-04-09T13:40:00.143Z,47.51
2023-04-09T13:43:02.851Z,47.81
2023-04-09T13:46:07.564Z,46.96
2023-04-09T13:49:10.298Z,47.08
2023-04-09T13:52:13.092Z,47.28
2023-04-09T13:55:15.819Z,47.59
2023-04-09T13:58:18.628Z,47.30
2023-04-09T14:01:22.975Z,47.71
2023-04-09T14:04:25.691Z,47.75
2023-04-09T14:07:28.680Z,47.45
2023-04-09T14:10:31.396Z,47.33
2023-04-09T14:13:34.286Z,48.24
2023-04-09T14:16:38.913Z,48.18
2023-04-09T14:19:41.639Z,47.93
2023-04-09T14:22:49.123Z,46.94
2023-04-09T14:25:51.786Z,46.72
2023-04-09T14:28:55.025Z,46.42
2023-04-09T14:31:59.965Z,46.61
2023-04-09T14:35:03.008Z,45.93
2023-04-09T14:38:05.746Z,46.12
2023-04-09T14:41:08.678Z,46.20
2023-04-09T14:44:11.464Z,46.34
2023-04-09T14:47:16.066Z,46.13
2023-04-09T14:50:19.070Z,47.48
2023-04-09T14:53:21.844Z,47.47
2023-04-09T14:56:25.125Z,45.99
2023-04-09T14:59:27.813Z,46.42
2023-04-09T15:02:32.090Z,45.47
2023-04-09T15:05:34.899Z,45.34
2023-04-09T15:08:37.590Z,45.49
2023-04-09T15:11:41.267Z,46.37
2023-04-09T15:14:43.935Z,46.58
2023-04-09T15:17:48.029Z,46.15
2023-04-09T15:20:51.147Z,46.00
2023-04-09T15:23:54.402Z,47.73
2023-04-09T15:26:57.811Z,49.17
2023-04-09T15:30:00.689Z,49.27
2023-04-09T15:33:06.207Z,48.87
2023-04-09T15:36:09.835Z,49.51
2023-04-09T15:42:33.137Z,50.18
2023-04-09T15:45:35.850Z,49.89
2023-04-09T15:48:40.121Z,50.83
2023-04-09T15:51:42.990Z,51.11
2023-04-09T15:54:45.786Z,51.37
2023-04-09T15:57:48.470Z,51.11
2023-04-09T16:00:51.598Z,51.83
2023-04-09T16:03:56.358Z,51.53
2023-04-09T16:06:59.298Z,51.42
2023-04-09T16:10:02.310Z,51.68
2023-04-09T16:13:05.638Z,50.96
2023-04-09T16:16:08.813Z,52.47
2023-04-09T16:19:12.996Z,52.14
2023-04-09T16:22:15.733Z,52.42
2023-04-09T16:25:18.526Z,52.23
2023-04-09T16:28:22.364Z,52.38
2023-04-09T16:31:25.085Z,53.24
2023-04-09T16:34:31.540Z,52.54
2023-04-09T16:37:35.167Z,51.88
2023-04-09T16:40:38.030Z,51.24
2023-04-09T16:43:41.170Z,51.81
2023-04-09T16:46:44.109Z,51.81
2023-04-09T16:49:48.341Z,52.46
2023-04-09T16:52:51.417Z,51.28
2023-04-09T16:55:54.148Z,51.84
2023-04-09T16:58:56.989Z,50.81
2023-04-09T17:01:59.785Z,51.06
2023-04-09T17:05:04.572Z,50.31
2023-04-09T17:08:07.333Z,51.17
2023-04-09T17:11:10.232Z,51.37
2023-04-09T17:14:13.041Z,51.34
2023-04-09T17:17:16.139Z,52.02
2023-04-09T17:20:20.854Z,52.64
2023-04-09T17:23:23.861Z,52.74
2023-04-09T17:26:27.113Z,53.39
2023-04-09T17:29:29.839Z,54.12
2023-04-09T17:32:32.582Z,54.77
2023-04-09T17:35:36.721Z,55.38
2023-04-09T17:38:39.629Z,55.85
2023-04-09T17:41:43.719Z,55.98
2023-04-09T17:44:46.549Z,57.10
2023-04-09T17:47:51.144Z,57.50
2023-04-09T17:50:55.450Z,57.75
2023-04-09T17:53:58.191Z,58.27
2023-04-09T17:57:01.017Z,58.69
2023-04-09T18:00:05.051Z,58.87
2023-04-09T18:03:07.966Z,58.47
2023-04-09T18:06:12.397Z,58.37
2023-04-09T18:09:15.590Z,59.33
2023-04-09T18:12:18.316Z,59.83
2023-04-09T18:15:21.839Z,59.91
2023-04-09T18:18:24.775Z,60.83
2023-04-09T18:21:28.868Z,61.07
2023-04-09T18:24:33.566Z,61.60
2023-04-09T18:27:36.325Z,61.56
2023-04-09T18:30:39.766Z,62.38
2023-04-09T18:33:42.689Z,62.65
2023-04-09T18:36:47.304Z,63.17
2023-04-09T18:39:50.223Z,63.45
2023-04-09T18:42:53.439Z,63.69
2023-04-09T18:45:56.297Z,63.88
2023-04-09T18:48:59.772Z,64.16
2023-04-09T18:52:05.366Z,64.21
2023-04-09T18:55:09.524Z,64.39
2023-04-09T18:58:15.045Z,64.07
2023-04-09T19:01:19.806Z,64.20
2023-04-09T19:04:22.831Z,64.13
2023-04-09T19:07:27.315Z,65.24
2023-04-09T19:10:30.686Z,65.90
2023-04-09T19:13:33.498Z,65.92
2023-04-09T19:16:36.398Z,65.71
2023-04-09T19:19:39.371Z,66.46
2023-04-09T19:22:47.784Z,66.40
2023-04-09T19:25:52.625Z,66.31
2023-04-09T19:28:55.769Z,66.77
2023-04-09T19:31:58.749Z,67.42
2023-04-09T19:35:01.822Z,66.44
2023-04-09T19:38:06.414Z,67.96
2023-04-09T19:41:09.338Z,67.27
2023-04-09T19:44:12.417Z,67.96
2023-04-09T19:47:16.805Z,67.52
2023-04-09T19:50:19.794Z,68.15
2023-04-09T19:53:23.902Z,68.16
2023-04-09T19:56:26.825Z,68.55
2023-04-09T19:59:29.801Z,68.99
2023-04-09T20:02:32.613Z,68.67
2023-04-09T20:05:35.857Z,69.74
2023-04-09T20:08:40.764Z,69.26
2023-04-09T20:11:43.823Z,68.84
2023-04-09T20:14:47.183Z,69.48
2023-04-09T20:17:50.944Z,70.47
2023-04-09T20:20:54.053Z,69.32
2023-04-09T20:23:58.095Z,68.15
2023-04-09T20:27:01.647Z,67.39
2023-04-09T20:30:04.980Z,64.02
2023-04-09T20:33:07.746Z,65.75
2023-04-09T20:36:16.240Z,67.10
2023-04-09T20:39:20.521Z,67.52
2023-04-09T20:42:23.243Z,68.80
2023-04-09T20:45:26.133Z,68.16
2023-04-09T20:48:31.339Z,67.48
2023-04-09T20:51:34.102Z,67.48
2023-04-09T20:54:39.346Z,67.07
2023-04-09T20:57:42.372Z,67.49
2023-04-09T21:00:45.224Z,67.24
2023-04-09T21:03:48.042Z,67.70
2023-04-09T21:06:50.980Z,67.08
2023-04-09T21:09:55.075Z,67.18
2023-04-09T21:12:57.782Z,67.90
2023-04-09T21:16:00.575Z,67.05
2023-04-09T21:19:06.955Z,66.08
2023-04-09T21:22:10.069Z,67.95
2023-04-09T21:25:15.497Z,67.23
2023-04-09T21:28:18.484Z,69.22
2023-04-09T21:31:22.070Z,67.64
2023-04-09T21:34:25.004Z,68.44
2023-04-09T21:37:28.976Z,67.27
2023-04-09T21:40:33.610Z,66.93
2023-04-09T21:43:38.238Z,68.08
2023-04-09T21:46:42.684Z,67.69
2023-04-09T21:49:46.378Z,67.17
2023-04-09T21:52:49.186Z,68.14
2023-04-09T21:55:53.405Z,67.32
2023-04-09T21:58:56.264Z,67.06
2023-04-09T22:01:59.180Z,65.23
2023-04-09T22:05:02.053Z,66.76
2023-04-09T22:08:04.869Z,67.26
2023-04-09T22:11:09.046Z,67.15
2023-04-09T22:14:11.939Z,67.81
2023-04-09T22:17:14.809Z,67.36
2023-04-09T22:20:17.586Z,67.15
2023-04-09T22:23:20.651Z,68.20
2023-04-09T22:26:24.966Z,69.37
2023-04-09T22:29:28.312Z,69.17
2023-04-09T22:32:33.435Z,68.89
2023-04-09T22:35:36.405Z,68.10
2023-04-09T22:38:39.268Z,68.65
2023-04-09T22:41:43.464Z,68.34
2023-04-09T22:44:46.383Z,68.71
2023-04-09T22:47:49.400Z,69.63
2023-04-09T22:50:52.157Z,68.90
2023-04-09T22:53:55.026Z,68.85
2023-04-09T22:56:59.119Z,69.20
2023-04-09T23:00:02.024Z,68.39
2023-04-09T23:03:05.096Z,68.21
2023-04-09T23:06:08.077Z,69.22
2023-04-09T23:09:11.037Z,68.28
2023-04-09T23:12:15.425Z,69.00
2023-04-09T23:15:18.306Z,67.87
2023-04-09T23:18:21.214Z,69.36
2023-04-09T23:21:23.942Z,69.04
2023-04-09T23:24:26.837Z,69.04
2023-04-09T23:27:31.081Z,69.59
2023-04-09T23:30:33.899Z,68.06
2023-04-09T23:33:36.887Z,67.47
2023-04-09T23:36:39.966Z,66.81
2023-04-09T23:39:43.214Z,68.25
2023-04-09T23:42:47.911Z,68.65
2023-04-09T23:45:50.845Z,69.50
2023-04-09T23:48:53.659Z,69.79
2023-04-09T23:51:56.329Z,69.27
2023-04-09T23:54:59.992Z,68.08
2023-04-09T23:58:04.070Z,69.62
